Time;durP1;ratioP1;P1;durP2;ratioP2;P2;SDS_P1;SDS_P2;PMS_P1;PMS_P2;Temp;Humidity;BMP_temperature;BMP_pressure;BME280_temperature;BME280_humidity;BME280_pressure;Samples;Min_cycle;Max_cycle;Signal;HPM_P1;HPM_P2
2023/04/02 00:01:18;;;;;;;2.73;2.47;;;7.80;99.90;;;8.33;100.00;97142.41;5233215;28;20299;-64
2023/04/02 00:04:21;;;;;;;3.27;2.47;;;7.80;99.90;;;8.35;100.00;97133.16;5228547;28;20209;-66
2023/04/02 00:07:00;;;;;;;2.40;2.20;;;7.80;99.90;;;8.34;100.00;97139.94;5235668;28;20211;-67
2023/04/02 00:09:37;;;;;;;2.57;2.37;;;7.80;99.90;;;8.31;100.00;97144.00;5244274;28;20576;-65
2023/04/02 00:12:20;;;;;;;2.80;2.60;;;7.70;99.90;;;8.31;100.00;97142.31;5235278;28;20192;-65
2023/04/02 00:14:56;;;;;;;2.27;2.07;;;7.70;99.90;;;8.35;100.00;97145.91;5230002;28;20224;-64
2023/04/02 00:17:29;;;;;;;1.90;1.80;;;7.70;99.90;;;8.42;100.00;97144.59;5238023;28;20685;-65
2023/04/02 00:20:06;;;;;;;2.10;2.00;;;7.80;99.90;;;8.45;100.00;97145.63;5238505;28;20200;-65
2023/04/02 00:22:44;;;;;;;2.03;1.93;;;7.70;99.90;;;8.35;100.00;97153.53;5231897;28;20192;-64
2023/04/02 00:25:17;;;;;;;3.23;2.20;;;7.70;99.90;;;8.42;100.00;97155.66;5239271;28;20723;-65
2023/04/02 00:27:52;;;;;;;2.50;2.30;;;7.80;99.90;;;8.42;100.00;97144.59;5240572;28;20199;-66
2023/04/02 00:30:25;;;;;;;2.10;2.00;;;7.70;99.90;;;8.32;100.00;97140.63;5237594;28;20240;-64
2023/04/02 00:32:59;;;;;;;2.10;2.00;;;7.70;99.90;;;8.30;100.00;97147.34;5230269;28;20587;-65
2023/04/02 00:35:33;;;;;;;2.33;2.00;;;7.70;99.90;;;8.31;100.00;97146.53;5234296;28;20286;-64
2023/04/02 00:38:07;;;;;;;2.20;2.10;;;7.70;99.90;;;8.33;100.00;97140.75;5235267;28;20287;-65
2023/04/02 00:40:40;;;;;;;2.40;2.30;;;7.70;99.90;;;8.41;100.00;97142.84;5225923;28;20201;-64
2023/04/02 00:43:16;;;;;;;2.00;1.90;;;7.70;99.90;;;8.35;100.00;97141.69;5236905;28;20211;-64
2023/04/02 00:45:55;;;;;;;2.10;2.00;;;7.70;99.90;;;8.32;100.00;97150.81;5226366;28;20223;-67
2023/04/02 00:48:41;;;;;;;3.20;1.63;;;7.70;99.90;;;8.35;100.00;97148.44;5235909;28;20642;-66
2023/04/02 00:51:22;;;;;;;2.10;2.00;;;7.70;99.90;;;8.46;100.00;97142.28;5232181;28;20201;-65
2023/04/02 00:54:01;;;;;;;1.90;1.80;;;7.70;99.90;;;8.43;100.00;97144.66;5236388;28;20204;-64
2023/04/02 00:56:40;;;;;;;2.10;2.00;;;7.70;99.90;;;8.45;100.00;97140.53;5230699;28;20262;-65
2023/04/02 00:59:26;;;;;;;2.00;1.90;;;7.70;99.90;;;8.46;100.00;97146.50;5231904;28;20560;-64
2023/04/02 01:02:25;;;;;;;1.90;1.80;;;7.70;99.90;;;8.57;100.00;97145.41;5230371;28;20572;-64
2023/04/02 01:05:01;;;;;;;2.10;1.90;;;7.80;99.90;;;8.60;100.00;97145.56;5234766;28;20254;-66
2023/04/02 01:07:51;;;;;;;1.90;1.80;;;7.80;99.90;;;8.46;100.00;97152.47;5234694;28;20694;-64
2023/04/02 01:10:50;;;;;;;1.70;1.60;;;7.80;99.90;;;8.41;100.00;97148.78;5228660;28;20199;-68
2023/04/02 01:13:30;;;;;;;1.67;1.57;;;7.80;99.90;;;8.44;100.00;97148.09;5233519;28;20197;-67
2023/04/02 01:16:13;;;;;;;2.07;1.97;;;7.70;99.90;;;8.43;100.00;97152.31;5226409;28;20216;-66
2023/04/02 01:19:00;;;;;;;1.67;1.60;;;7.80;99.90;;;8.48;100.00;97152.56;5225115;28;20288;-65
2023/04/02 01:21:55;;;;;;;1.50;1.50;;;7.80;99.90;;;8.46;100.00;97156.69;5228240;28;20692;-66
2023/04/02 01:24:33;;;;;;;2.13;1.90;;;7.70;99.90;;;8.39;100.00;97152.09;5233179;28;20707;-65
2023/04/02 01:27:16;;;;;;;1.40;1.40;;;7.70;99.90;;;8.42;100.00;97155.66;5234704;28;20698;-65
2023/04/02 01:29:55;;;;;;;1.70;1.60;;;7.70;99.90;;;8.36;100.00;97155.31;5230399;28;20299;-66
2023/04/02 01:32:30;;;;;;;1.67;1.57;;;7.70;99.90;;;8.28;100.00;97162.53;5226901;28;20620;-65
2023/04/02 01:35:03;;;;;;;1.63;1.53;;;7.70;99.90;;;8.23;100.00;97165.59;5231491;28;20229;-65
2023/04/02 01:37:45;;;;;;;1.60;1.50;;;7.60;99.90;;;8.21;100.00;97169.72;5232043;28;20192;-64
2023/04/02 01:40:35;;;;;;;2.00;1.80;;;7.60;99.90;;;8.29;100.00;97171.91;5237993;28;20203;-65
2023/04/02 01:43:18;;;;;;;1.83;1.73;;;7.60;99.90;;;8.21;100.00;97175.72;5229757;28;20201;-67
2023/04/02 01:45:52;;;;;;;1.73;1.63;;;7.60;99.90;;;8.31;100.00;97177.97;5230473;28;20216;-65
2023/04/02 01:48:30;;;;;;;1.60;1.60;;;7.60;99.90;;;8.33;100.00;97183.16;5232780;28;20224;-66
2023/04/02 01:51:08;;;;;;;1.90;1.80;;;7.70;99.90;;;8.43;100.00;97187.97;5229283;28;20200;-65
2023/04/02 01:53:41;;;;;;;1.60;1.50;;;7.70;99.90;;;8.33;100.00;97186.56;5237134;28;20196;-64
2023/04/02 01:56:14;;;;;;;1.87;1.80;;;7.70;99.90;;;8.37;100.00;97186.72;5232859;28;20288;-65
2023/04/02 01:58:48;;;;;;;1.70;1.60;;;7.70;99.90;;;8.30;100.00;97188.06;5231876;28;20204;-64
2023/04/02 02:01:27;;;;;;;1.70;1.60;;;7.70;99.90;;;8.27;100.00;97188.78;5236136;28;20206;-64
2023/04/02 02:04:01;;;;;;;1.83;1.80;;;7.70;99.90;;;8.23;100.00;97185.97;5231299;28;20224;-66
2023/04/02 02:06:35;;;;;;;1.90;1.80;;;7.70;99.90;;;8.29;100.00;97194.81;5235242;28;20211;-64
2023/04/02 02:09:12;;;;;;;1.80;1.70;;;7.70;99.90;;;8.37;100.00;97192.69;5231452;28;20202;-64
2023/04/02 02:11:45;;;;;;;1.70;1.70;;;7.70;99.90;;;8.34;100.00;97201.03;5235822;28;20207;-64
2023/04/02 02:14:22;;;;;;;1.73;1.63;;;7.70;99.90;;;8.30;100.00;97204.22;5235347;28;20233;-65
2023/04/02 02:17:01;;;;;;;1.73;1.67;;;7.60;99.90;;;8.24;100.00;97210.63;5240440;28;20283;-65
2023/04/02 02:19:39;;;;;;;1.50;1.50;;;7.60;99.90;;;8.27;100.00;97210.78;5234085;28;20204;-64
2023/04/02 02:22:18;;;;;;;1.77;1.50;;;7.70;99.90;;;8.28;100.00;97210.00;5236367;28;20557;-64
2023/04/02 02:24:52;;;;;;;1.60;1.60;;;7.70;99.90;;;8.26;100.00;97214.13;5232458;28;20220;-65
2023/04/02 02:27:52;;;;;;;2.07;1.97;;;7.60;99.90;;;8.27;100.00;97211.69;5237883;28;20232;-65
2023/04/02 02:30:28;;;;;;;1.70;1.70;;;7.70;99.90;;;8.26;100.00;97217.56;5235899;28;20207;-65
2023/04/02 02:33:08;;;;;;;1.83;1.80;;;7.60;99.90;;;8.30;100.00;97219.50;5230610;28;20201;-65
2023/04/02 02:35:49;;;;;;;2.13;1.87;;;7.60;99.90;;;8.33;100.00;97216.25;5238313;28;20323;-65
2023/04/02 02:38:36;;;;;;;1.60;1.60;;;7.70;99.90;;;8.37;100.00;97223.25;5238645;28;20200;-67
2023/04/02 02:41:18;;;;;;;1.50;1.50;;;7.70;99.90;;;8.41;100.00;97227.72;5237824;28;20228;-65
2023/04/02 02:44:00;;;;;;;2.40;1.50;;;7.70;99.90;;;8.37;100.00;97224.91;5226548;28;20667;-65
2023/04/02 02:46:35;;;;;;;1.90;1.80;;;7.70;99.90;;;8.37;100.00;97220.69;5238545;28;20684;-65
2023/04/02 02:49:16;;;;;;;1.70;1.60;;;7.70;99.90;;;8.47;100.00;97224.66;5234424;28;20296;-67
2023/04/02 02:51:55;;;;;;;1.77;1.77;;;7.70;99.90;;;8.41;100.00;97222.66;5237338;28;20208;-65
2023/04/02 02:54:30;;;;;;;1.70;1.60;;;7.70;99.90;;;8.37;100.00;97228.34;5237146;28;20213;-64
2023/04/02 02:57:08;;;;;;;1.80;1.80;;;7.70;99.90;;;8.34;100.00;97239.22;5238157;28;20648;-65
2023/04/02 02:59:42;;;;;;;1.80;1.70;;;7.70;99.90;;;8.32;100.00;97234.84;5234363;28;20207;-65
2023/04/02 03:02:16;;;;;;;1.73;1.73;;;7.70;99.90;;;8.46;100.00;97239.06;5241203;28;20204;-66
2023/04/02 03:04:53;;;;;;;1.87;1.77;;;7.70;99.90;;;8.44;100.00;97239.75;5234737;28;20759;-64
2023/04/02 03:07:29;;;;;;;2.07;1.80;;;7.70;99.90;;;8.41;100.00;97242.16;5235063;28;20655;-69
2023/04/02 03:10:10;;;;;;;2.00;1.90;;;7.70;99.90;;;8.42;100.00;97247.34;5237736;28;20744;-65
2023/04/02 03:12:51;;;;;;;2.77;1.80;;;7.70;99.90;;;8.39;100.00;97243.75;5230082;28;20205;-66
2023/04/02 03:15:34;;;;;;;1.80;1.70;;;7.70;99.90;;;8.38;100.00;97253.00;5234572;28;20239;-66
2023/04/02 03:18:14;;;;;;;1.60;1.50;;;7.70;99.90;;;8.36;100.00;97252.06;5232571;28;20204;-66
2023/04/02 03:20:52;;;;;;;1.60;1.30;;;7.70;99.90;;;8.36;100.00;97252.06;5236061;28;20204;-66
2023/04/02 03:23:30;;;;;;;2.07;1.87;;;7.70;99.90;;;8.37;100.00;97258.91;5226440;28;20441;-65
2023/04/02 03:26:08;;;;;;;1.63;1.53;;;7.70;99.90;;;8.47;100.00;97261.22;5231139;28;20336;-65
2023/04/02 03:28:46;;;;;;;1.52;1.50;;;7.70;99.90;;;8.45;100.00;97260.22;5235647;28;20660;-64
2023/04/02 03:31:26;;;;;;;1.90;1.80;;;7.70;99.90;;;8.60;100.00;97262.75;5239637;28;20198;-65
2023/04/02 03:34:04;;;;;;;1.60;1.60;;;7.80;99.90;;;8.59;100.00;97265.22;5229539;28;20215;-66
2023/04/02 03:36:47;;;;;;;1.53;1.43;;;7.80;99.90;;;8.49;100.00;97264.69;5236100;28;20206;-64
2023/04/02 03:39:27;;;;;;;2.37;1.80;;;7.80;99.90;;;8.45;100.00;97272.97;5237129;28;20223;-65
2023/04/02 03:42:06;;;;;;;1.83;1.73;;;7.70;99.90;;;8.40;100.00;97282.00;5234530;28;20715;-65
2023/04/02 03:44:45;;;;;;;1.97;1.90;;;7.70;99.90;;;8.42;100.00;97277.91;5228923;28;20763;-64
2023/04/02 03:47:27;;;;;;;2.17;2.03;;;7.70;99.90;;;8.48;100.00;97275.69;5233415;28;20298;-65
2023/04/02 03:50:05;;;;;;;2.10;2.00;;;7.70;99.90;;;8.51;100.00;97275.84;5239801;28;20663;-65
2023/04/02 03:52:39;;;;;;;2.10;2.00;;;7.70;99.90;;;8.53;100.00;97276.81;5236000;28;20211;-66
2023/04/02 03:55:17;;;;;;;1.97;1.80;;;7.70;99.90;;;8.46;100.00;97279.81;5234460;28;20647;-65
2023/04/02 03:58:00;;;;;;;2.13;1.90;;;7.70;99.90;;;8.47;100.00;97281.59;5237265;28;20200;-66
2023/04/02 04:00:38;;;;;;;1.97;1.87;;;7.70;99.90;;;8.38;100.00;97280.13;5232550;28;20295;-64
2023/04/02 04:03:15;;;;;;;2.00;1.90;;;7.70;99.90;;;8.47;100.00;97279.03;5228471;28;20211;-65
2023/04/02 04:05:52;;;;;;;2.30;2.10;;;7.70;99.90;;;8.55;100.00;97287.94;5235108;28;20229;-64
2023/04/02 04:08:36;;;;;;;2.35;1.80;;;7.70;99.90;;;8.69;100.00;97293.81;5230209;28;20227;-64
2023/04/02 04:11:14;;;;;;;2.00;1.80;;;7.70;99.90;;;8.73;100.00;97289.78;5232401;28;20659;-65
2023/04/02 04:13:54;;;;;;;1.85;1.75;;;7.80;99.90;;;8.65;100.00;97296.13;5235517;28;20196;-65
2023/04/02 04:16:33;;;;;;;2.20;2.00;;;7.80;99.90;;;8.63;100.00;97302.78;5231033;28;20207;-65
2023/04/02 04:19:16;;;;;;;1.70;1.60;;;7.80;99.90;;;8.54;100.00;97298.06;5228309;28;20239;-65
2023/04/02 04:21:55;;;;;;;2.10;1.90;;;7.80;99.90;;;8.55;100.00;97305.78;5234541;28;20227;-65
2023/04/02 04:24:31;;;;;;;3.27;2.10;;;7.80;99.90;;;8.55;100.00;97310.00;5225246;28;20217;-65
2023/04/02 04:27:09;;;;;;;3.10;2.00;;;7.80;99.90;;;8.61;100.00;97317.09;5228126;28;20660;-65
2023/04/02 04:29:52;;;;;;;2.10;2.00;;;7.80;99.90;;;8.54;100.00;97314.22;5232834;28;20208;-67
2023/04/02 04:32:32;;;;;;;1.77;1.67;;;7.80;99.90;;;8.48;100.00;97316.44;5228128;28;20200;-66
2023/04/02 04:35:16;;;;;;;1.83;1.73;;;7.70;99.90;;;8.42;100.00;97318.63;5226648;28;20224;-65
2023/04/02 04:37:57;;;;;;;2.00;1.90;;;7.80;99.90;;;8.47;100.00;97329.06;5234563;28;20208;-66
2023/04/02 04:40:34;;;;;;;2.10;1.90;;;7.70;99.90;;;8.47;100.00;97332.50;5231673;28;20526;-65
2023/04/02 04:43:14;;;;;;;1.80;1.70;;;7.70;99.90;;;8.43;100.00;97329.69;5231186;28;20204;-66
2023/04/02 04:45:54;;;;;;;2.40;1.90;;;7.70;99.90;;;8.46;100.00;97334.97;5225774;28;20235;-66
2023/04/02 04:48:34;;;;;;;2.03;1.93;;;7.70;99.90;;;8.44;100.00;97341.63;5226230;28;20232;-66
2023/04/02 04:51:17;;;;;;;1.97;1.87;;;7.70;99.90;;;8.45;100.00;97343.41;5228229;28;20228;-64
2023/04/02 04:53:53;;;;;;;2.10;2.00;;;7.70;99.90;;;8.44;100.00;97347.63;5219538;28;20203;-67
2023/04/02 04:56:30;;;;;;;2.00;1.90;;;7.70;99.90;;;8.40;100.00;97345.66;5233617;28;20642;-67
2023/04/02 04:59:13;;;;;;;2.00;1.90;;;7.70;99.90;;;8.39;100.00;97354.13;5228914;28;20663;-67
2023/04/02 05:01:51;;;;;;;2.03;1.93;;;7.70;99.90;;;8.45;100.00;97349.38;5226999;28;20205;-67
2023/04/02 05:04:30;;;;;;;2.33;2.23;;;7.70;99.90;;;8.51;100.00;97354.81;5232035;28;20220;-67
2023/04/02 05:07:09;;;;;;;2.50;2.05;;;7.70;99.90;;;8.59;100.00;97354.38;5230574;28;20600;-66
2023/04/02 05:09:46;;;;;;;2.00;1.90;;;7.70;99.90;;;8.49;100.00;97361.47;5228995;28;20723;-66
2023/04/02 05:12:31;;;;;;;2.03;1.93;;;7.80;99.90;;;8.42;100.00;97363.59;5234224;28;20547;-65
2023/04/02 05:15:12;;;;;;;1.97;1.87;;;7.70;99.90;;;8.45;100.00;97371.41;5233707;28;20591;-69
2023/04/02 05:17:53;;;;;;;2.00;1.90;;;7.70;99.90;;;8.44;100.00;97370.53;5235837;28;20193;-66
2023/04/02 05:20:31;;;;;;;1.73;1.57;;;7.70;99.90;;;8.48;100.00;97372.47;5227212;28;20576;-65
2023/04/02 05:23:10;;;;;;;1.85;1.75;;;7.70;99.90;;;8.50;100.00;97378.53;5227184;28;20228;-67
2023/04/02 05:25:54;;;;;;;2.83;2.00;;;7.80;99.90;;;8.53;100.00;97381.25;5232127;28;20224;-66
2023/04/02 05:28:36;;;;;;;2.00;1.90;;;7.80;99.90;;;8.53;100.00;97378.69;5233329;28;20224;-65
2023/04/02 05:31:13;;;;;;;1.93;1.83;;;7.80;99.90;;;8.56;100.00;97385.66;5230489;28;20199;-67
2023/04/02 05:33:49;;;;;;;1.85;1.73;;;7.80;99.90;;;8.53;100.00;97383.78;5230890;28;20653;-65
2023/04/02 05:36:25;;;;;;;2.30;2.10;;;7.80;99.90;;;8.53;100.00;97388.03;5229757;28;20205;-65
2023/04/02 05:38:59;;;;;;;1.90;1.80;;;7.80;99.90;;;8.54;100.00;97393.19;5224804;28;20193;-66
2023/04/02 05:41:37;;;;;;;2.07;1.97;;;7.80;99.90;;;8.57;100.00;97401.00;5237610;28;20203;-64
2023/04/02 05:44:21;;;;;;;2.40;2.20;;;7.80;99.90;;;8.56;100.00;97399.25;5239502;28;20254;-66
2023/04/02 05:46:58;;;;;;;2.10;2.00;;;7.80;99.90;;;8.62;100.00;97400.41;5234583;28;20529;-66
2023/04/02 05:49:40;;;;;;;1.93;1.83;;;7.90;99.90;;;8.66;100.00;97415.06;5229806;28;20692;-65
2023/04/02 05:52:17;;;;;;;2.17;1.97;;;7.90;99.90;;;8.66;100.00;97415.06;5237065;28;20671;-65
2023/04/02 05:54:55;;;;;;;2.20;2.00;;;7.90;99.90;;;8.60;100.00;97415.56;5241532;28;20789;-67
2023/04/02 05:57:34;;;;;;;2.40;2.20;;;7.90;99.90;;;8.56;100.00;97421.31;5232364;28;20228;-66
2023/04/02 06:00:39;;;;;;;2.73;1.87;;;7.90;99.90;;;8.53;100.00;97427.09;5235425;28;20204;-66
2023/04/02 06:03:23;;;;;;;1.93;1.83;;;7.90;99.90;;;8.57;100.00;97430.69;5231661;28;20200;-66
2023/04/02 06:06:02;;;;;;;1.85;1.75;;;7.90;99.90;;;8.62;100.00;97431.84;5237426;28;20701;-66
2023/04/02 06:08:41;;;;;;;2.38;2.00;;;7.90;99.90;;;8.64;100.00;97443.00;5237432;28;20221;-67
2023/04/02 06:11:21;;;;;;;2.60;2.20;;;7.90;99.90;;;8.61;100.00;97441.94;5235203;28;20296;-67
2023/04/02 06:13:54;;;;;;;2.27;2.07;;;7.90;99.90;;;8.57;100.00;97435.78;5235780;28;20568;-67
2023/04/02 06:16:30;;;;;;;2.43;2.23;;;7.80;99.90;;;8.56;100.00;97442.56;5238941;28;20283;-65
2023/04/02 06:19:10;;;;;;;2.13;1.92;;;7.80;99.90;;;8.57;100.00;97444.28;5236947;28;20196;-65
2023/04/02 06:21:45;;;;;;;2.00;1.90;;;7.90;99.90;;;8.56;100.00;97447.66;5238880;28;20257;-66
2023/04/02 06:24:23;;;;;;;2.30;2.10;;;7.80;99.90;;;8.63;100.00;97450.53;5235380;28;20224;-66
2023/04/02 06:27:02;;;;;;;4.53;3.80;;;7.90;99.90;;;8.63;100.00;97455.63;5235192;28;20717;-65
2023/04/02 06:29:38;;;;;;;5.60;4.77;;;7.90;99.90;;;8.52;100.00;97463.53;5238301;28;20680;-66
2023/04/02 06:32:13;;;;;;;4.03;3.63;;;7.90;99.90;;;8.53;100.00;97465.31;5239068;28;20689;-66
2023/04/02 06:34:46;;;;;;;3.60;3.30;;;7.80;99.90;;;8.62;100.00;97464.09;5234767;28;20695;-65
2023/04/02 06:37:27;;;;;;;3.00;2.80;;;7.90;99.90;;;8.70;100.00;97473.00;5234794;28;20205;-66
2023/04/02 06:40:00;;;;;;;2.80;2.60;;;8.00;99.90;;;8.68;100.00;97479.72;5234462;28;20203;-65
2023/04/02 06:42:37;;;;;;;2.60;2.33;;;8.00;99.90;;;8.75;100.00;97481.81;5236682;28;20609;-65
2023/04/02 06:45:18;;;;;;;2.87;2.67;;;8.00;99.90;;;8.79;100.00;97483.75;5237711;28;20219;-66
2023/04/02 06:47:57;;;;;;;3.07;2.87;;;8.00;99.90;;;8.78;100.00;97488.00;5232434;28;20196;-66
2023/04/02 06:50:37;;;;;;;3.65;3.35;;;8.00;99.90;;;8.77;100.00;97488.75;5231624;28;20667;-68
2023/04/02 06:53:21;;;;;;;3.30;3.10;;;8.00;99.90;;;8.76;100.00;97494.66;5237184;28;20200;-66
2023/04/02 06:56:01;;;;;;;3.55;3.35;;;8.00;99.90;;;8.83;100.00;97502.66;5236593;28;20220;-65
2023/04/02 06:58:34;;;;;;;3.43;3.13;;;8.10;99.90;;;8.85;100.00;97499.41;5233635;28;20212;-65
2023/04/02 07:01:08;;;;;;;3.53;3.33;;;8.10;99.90;;;8.96;100.00;97508.53;5233606;28;22204;-66
2023/04/02 07:03:42;;;;;;;3.28;3.08;;;8.20;99.90;;;9.15;100.00;97510.47;5234901;28;20700;-65
2023/04/02 07:06:18;;;;;;;3.60;3.30;;;8.20;99.90;;;9.21;100.00;97517.56;5240060;28;20204;-66
2023/04/02 07:08:51;;;;;;;3.15;2.95;;;8.30;99.90;;;9.11;100.00;97517.88;5237637;28;20782;-65
2023/04/02 07:11:25;;;;;;;2.90;2.70;;;8.30;99.90;;;9.16;100.00;97519.88;5234778;28;20209;-66
2023/04/02 07:13:58;;;;;;;3.05;2.85;;;8.30;99.90;;;9.17;100.00;97515.66;5234311;28;20196;-66
2023/04/02 07:16:35;;;;;;;3.20;3.00;;;8.30;99.90;;;9.14;100.00;97524.00;5231148;28;20283;-65
2023/04/02 07:19:19;;;;;;;3.00;2.80;;;8.30;99.90;;;9.17;100.00;97523.31;5229105;28;20189;-66
2023/04/02 07:21:52;;;;;;;2.80;2.63;;;8.40;99.90;;;9.22;100.00;97527.88;5234326;28;20703;-66
2023/04/02 07:24:25;;;;;;;2.92;2.72;;;8.50;99.90;;;9.29;100.00;97529.09;5239538;28;20216;-65
2023/04/02 07:26:58;;;;;;;2.80;2.65;;;8.40;99.90;;;9.30;100.00;97537.63;5236463;28;20196;-66
2023/04/02 07:29:31;;;;;;;2.53;2.42;;;8.40;99.90;;;9.36;100.00;97538.88;5228393;28;20217;-65
2023/04/02 07:32:04;;;;;;;2.65;2.45;;;8.50;99.90;;;9.38;100.00;97544.91;5236203;28;20204;-65
2023/04/02 07:34:40;;;;;;;2.58;2.42;;;8.50;99.90;;;9.40;100.00;97548.44;5238779;28;20600;-65
2023/04/02 07:37:14;;;;;;;2.92;2.75;;;8.50;99.90;;;9.43;100.00;97551.16;5240694;28;20670;-66
2023/04/02 07:39:47;;;;;;;2.97;2.58;;;8.60;99.90;;;9.46;100.00;97548.78;5238131;28;20200;-67
2023/04/02 07:42:20;;;;;;;2.70;2.50;;;8.60;99.90;;;9.49;100.00;97553.16;5232681;28;20208;-65
2023/04/02 07:44:53;;;;;;;2.97;2.78;;;8.60;99.90;;;9.52;100.00;97552.47;5237326;28;20228;-69
2023/04/02 07:47:26;;;;;;;3.72;2.92;;;8.60;99.90;;;9.52;100.00;97562.66;5233907;28;20197;-65
2023/04/02 07:50:00;;;;;;;2.67;2.58;;;8.60;99.90;;;9.62;100.00;97565.84;5235900;28;20289;-69
2023/04/02 07:52:34;;;;;;;2.45;2.25;;;8.70;99.90;;;9.65;100.00;97565.13;5234488;28;20730;-65
2023/04/02 07:55:08;;;;;;;3.00;2.80;;;8.70;99.90;;;9.64;100.00;97568.44;5237739;28;20223;-65
2023/04/02 07:57:48;;;;;;;2.33;2.22;;;8.70;99.90;;;9.72;100.00;97572.31;5231963;28;20255;-69
2023/04/02 08:00:22;;;;;;;4.50;2.60;;;8.80;99.90;;;9.74;100.00;97572.41;5232864;28;20204;-65
2023/04/02 08:02:55;;;;;;;2.53;2.33;;;8.90;99.90;;;9.80;100.00;97583.84;5234607;28;20206;-68
2023/04/02 08:05:30;;;;;;;2.70;2.50;;;8.80;99.90;;;9.83;100.00;97581.44;5234235;28;20227;-65
2023/04/02 08:08:03;;;;;;;2.60;2.50;;;8.90;99.90;;;9.88;100.00;97590.25;5238486;28;20192;-65
2023/04/02 08:10:36;;;;;;;2.60;2.40;;;8.90;99.90;;;9.83;100.00;97590.78;5238570;28;20679;-65
2023/04/02 08:13:09;;;;;;;2.47;2.30;;;8.90;99.90;;;9.83;100.00;97591.66;5241177;28;20208;-66
2023/04/02 08:15:43;;;;;;;2.70;2.13;;;9.00;99.90;;;9.84;100.00;97593.44;5239781;28;20661;-65
2023/04/02 08:18:16;;;;;;;2.60;2.40;;;9.00;99.90;;;9.79;100.00;97597.41;5235521;28;20244;-66
2023/04/02 08:20:51;;;;;;;2.67;2.40;;;9.00;99.90;;;9.80;100.00;97596.59;5240051;28;20300;-66
2023/04/02 08:23:25;;;;;;;3.03;2.63;;;9.00;99.90;;;9.80;100.00;97604.25;5242042;28;20550;-65
2023/04/02 08:25:59;;;;;;;2.53;2.38;;;9.00;99.90;;;9.82;100.00;97610.31;5235776;28;20306;-65
2023/04/02 08:28:32;;;;;;;2.80;2.60;;;8.90;99.90;;;9.79;100.00;97614.38;5240862;28;20232;-65
2023/04/02 08:31:07;;;;;;;2.58;2.38;;;9.00;99.90;;;9.82;100.00;97614.56;5239775;28;20220;-65
2023/04/02 08:33:40;;;;;;;2.75;2.40;;;9.00;99.90;;;9.92;99.03;97622.78;5238555;28;20203;-65
2023/04/02 08:36:17;;;;;;;3.38;2.55;;;9.10;99.90;;;9.95;100.00;97618.66;5239673;28;20193;-66
2023/04/02 08:38:51;;;;;;;2.42;2.22;;;9.10;99.90;;;9.99;100.00;97625.72;5241778;28;20208;-65
2023/04/02 08:41:27;;;;;;;2.33;2.20;;;9.20;99.90;;;9.96;100.00;97628.06;5241481;28;20681;-67
2023/04/02 08:44:16;;;;;;;2.50;2.40;;;9.20;99.90;;;10.06;100.00;97632.91;5236278;28;20736;-68
2023/04/02 08:46:55;;;;;;;2.55;2.40;;;9.20;99.90;;;10.10;100.00;97627.16;5231775;28;20205;-65
2023/04/02 08:49:32;;;;;;;2.33;2.17;;;9.20;99.90;;;10.17;100.00;97629.25;5234240;28;20196;-66
2023/04/02 08:52:20;;;;;;;2.60;2.40;;;9.30;99.90;;;10.21;100.00;97636.28;5237199;28;20222;-68
2023/04/02 08:54:55;;;;;;;3.40;2.25;;;9.30;99.90;;;10.26;100.00;97641.66;5236746;28;20682;-66
2023/04/02 08:57:43;;;;;;;2.45;2.25;;;9.30;99.90;;;10.26;100.00;97642.53;5241340;28;20231;-65
2023/04/02 09:00:31;;;;;;;2.50;2.22;;;9.40;99.90;;;10.29;100.00;97645.28;5233137;28;20211;-65
2023/04/02 09:03:10;;;;;;;2.30;2.20;;;9.40;99.90;;;10.41;100.00;97646.75;5239782;28;20197;-65
2023/04/02 09:05:45;;;;;;;2.47;2.30;;;9.50;99.90;;;10.45;100.00;97652.13;5239936;28;20698;-68
2023/04/02 09:08:23;;;;;;;2.45;2.25;;;9.50;99.90;;;10.49;100.00;97656.59;5241238;28;20283;-65
2023/04/02 09:11:06;;;;;;;1.90;1.80;;;9.60;99.90;;;10.60;100.00;97658.03;5239139;28;20231;-65
2023/04/02 09:13:45;;;;;;;2.78;2.50;;;9.70;99.90;;;10.65;100.00;97660.84;5236405;28;20600;-67
2023/04/02 09:16:21;;;;;;;3.13;2.50;;;9.70;99.90;;;10.67;100.00;97664.34;5233822;28;20188;-68
2023/04/02 09:18:55;;;;;;;2.60;2.35;;;9.70;99.90;;;10.68;100.00;97671.22;5238443;28;20254;-65
2023/04/02 09:21:35;;;;;;;2.38;2.28;;;9.70;99.90;;;10.71;100.00;97673.94;5234343;28;20204;-66
2023/04/02 09:24:12;;;;;;;2.30;2.10;;;9.70;99.90;;;10.75;100.00;97678.41;5243287;28;20299;-66
2023/04/02 09:26:46;;;;;;;2.28;2.08;;;9.80;99.90;;;10.81;100.00;97678.75;5235463;28;20200;-66
2023/04/02 09:29:43;;;;;;;1.83;1.70;;;9.90;99.90;;;10.86;96.91;97676.44;5242661;28;20200;-66
2023/04/02 09:32:44;;;;;;;4.07;3.70;;;9.80;99.90;;;10.93;96.26;97687.84;5236110;28;20192;-66
2023/04/02 09:35:20;;;;;;;111.70;77.28;;;9.90;99.90;;;11.15;93.60;97689.88;5237116;28;20597;-68
2023/04/02 09:38:19;;;;;;;7.82;6.68;;;10.00;99.90;;;11.14;93.28;97689.00;5236032;28;20201;-66
2023/04/02 09:41:00;;;;;;;3.55;2.53;;;10.10;99.90;;;11.35;92.23;97688.34;5234594;28;20204;-66
2023/04/02 09:43:35;;;;;;;2.03;1.90;;;10.20;99.90;;;11.30;92.27;97694.91;5231955;28;20205;-66
2023/04/02 09:46:18;;;;;;;1.90;1.77;;;10.30;99.90;;;11.39;92.52;97703.94;5235899;28;20695;-66
2023/04/02 09:48:56;;;;;;;2.10;1.90;;;10.30;99.90;;;11.46;92.33;97705.13;5236466;28;20295;-65
2023/04/02 09:51:35;;;;;;;2.33;2.10;;;10.40;99.90;;;11.44;91.03;97705.03;5238228;28;20597;-67
2023/04/02 09:54:14;;;;;;;2.05;1.88;;;10.30;99.90;;;11.29;89.77;97709.38;5233210;28;20220;-66
2023/04/02 09:57:05;;;;;;;2.13;1.92;;;10.30;99.90;;;11.35;90.70;97714.81;5237859;28;20338;-65
2023/04/02 09:59:38;;;;;;;3.58;2.35;;;10.30;99.90;;;11.30;90.86;97712.81;5240039;28;20201;-69
2023/04/02 10:02:25;;;;;;;2.60;2.40;;;10.30;99.90;;;11.31;91.87;97717.13;5235270;28;20227;-66
2023/04/02 10:05:03;;;;;;;2.40;2.20;;;10.30;99.90;;;11.35;91.82;97713.94;5236315;28;20809;-66
2023/04/02 10:07:40;;;;;;;2.50;2.30;;;10.40;99.90;;;11.53;92.46;97716.53;5239841;28;20196;-67
2023/04/02 10:10:21;;;;;;;2.15;2.05;;;10.50;99.90;;;11.78;92.37;97719.53;5234021;28;20200;-66
2023/04/02 10:13:04;;;;;;;1.75;1.65;;;10.80;99.90;;;12.06;90.73;97724.38;5241068;28;20285;-66
2023/04/02 10:15:43;;;;;;;1.73;1.63;;;11.00;99.90;;;12.28;89.83;97728.00;5234364;28;20330;-65
2023/04/02 10:18:24;;;;;;;18.30;16.83;;;11.20;99.90;;;12.52;87.43;97731.72;5230513;28;20189;-66
2023/04/02 10:20:59;;;;;;;2.42;2.33;;;11.30;99.90;;;12.53;86.60;97727.47;5236234;28;20231;-66
2023/04/02 10:23:33;;;;;;;27.77;24.55;;;11.40;99.90;;;12.68;84.85;97728.19;5233008;28;20231;-66
2023/04/02 10:26:36;;;;;;;9.15;7.93;;;11.40;99.90;;;12.74;79.16;97728.47;5238091;28;20223;-67
2023/04/02 10:29:33;;;;;;;2.83;2.63;;;11.60;99.90;;;12.64;81.54;97731.41;5234067;28;20197;-67
2023/04/02 10:32:11;;;;;;;2.83;2.63;;;11.40;99.90;;;12.79;80.91;97741.50;5234002;28;20231;-67
2023/04/02 10:34:54;;;;;;;2.28;2.08;;;11.40;99.90;;;12.62;81.22;97736.47;5234831;28;20940;-66
2023/04/02 10:37:55;;;;;;;2.65;2.50;;;11.30;99.90;;;12.33;83.19;97736.75;5229492;28;20208;-66
2023/04/02 10:40:32;;;;;;;3.30;3.10;;;11.20;99.90;;;12.48;81.88;97737.50;5229661;28;20199;-67
2023/04/02 10:43:45;;;;;;;2.85;2.30;;;11.10;99.90;;;12.37;83.09;97739.56;5238285;28;20211;-66
2023/04/02 10:46:27;;;;;;;2.22;2.03;;;11.10;99.90;;;12.49;83.39;97736.69;5236482;28;20201;-70
2023/04/02 10:49:13;;;;;;;2.05;1.95;;;11.10;99.90;;;12.68;82.95;97745.28;5236178;28;20207;-67
2023/04/02 10:51:54;;;;;;;5.63;5.32;;;11.30;99.90;;;12.87;78.94;97744.41;5236750;28;20314;-66
2023/04/02 10:54:41;;;;;;;1.90;1.80;;;11.60;99.90;;;12.73;80.36;97747.22;5243927;28;20311;-69
2023/04/02 10:57:27;;;;;;;5.93;5.53;;;11.50;99.90;;;12.62;80.89;97759.56;5234879;28;20216;-66
2023/04/02 11:00:15;;;;;;;2.08;1.90;;;11.50;99.90;;;12.65;80.97;97757.91;5233587;28;20715;-66
2023/04/02 11:02:56;;;;;;;1.77;1.70;;;11.40;99.90;;;12.69;80.42;97760.72;5236588;28;20198;-67
2023/04/02 11:05:38;;;;;;;2.50;2.30;;;11.50;99.90;;;12.76;79.92;97751.59;5247185;28;20243;-67
2023/04/02 11:08:18;;;;;;;2.53;2.42;;;11.50;99.90;;;12.82;80.63;97757.94;5235112;28;20197;-65
2023/04/02 11:10:56;;;;;;;1.90;1.80;;;11.60;99.90;;;12.82;80.07;97759.63;5236881;28;20223;-66
2023/04/02 11:13:33;;;;;;;3.88;3.58;;;11.60;99.90;;;12.98;79.62;97764.63;5231531;28;20201;-66
2023/04/02 11:16:06;;;;;;;2.92;2.72;;;11.80;99.90;;;12.95;80.53;97764.50;5232221;28;20728;-67